Time;durP1;ratioP1;P1;durP2;ratioP2;P2;SDS_P1;SDS_P2;PMS_P1;PMS_P2;Temp;Humidity;BMP_temperature;BMP_pressure;BME280_temperature;BME280_humidity;BME280_pressure;Samples;Min_cycle;Max_cycle;Signal;HPM_P1;HPM_P2
2022/09/14 00:00:46;;;;;;;2.37;0.70;;;;;;;11.91;100.00;98858.07;1732836;80;21076;-51
2022/09/14 00:03:13;;;;;;;3.02;0.90;;;;;;;11.92;100.00;98859.80;1742287;80;21162;-49
2022/09/14 00:05:40;;;;;;;1.30;0.60;;;;;;;11.94;100.00;98861.91;1734005;80;21662;-49
2022/09/14 00:08:07;;;;;;;2.00;0.60;;;;;;;11.94;100.00;98861.91;1736579;80;21042;-49
2022/09/14 00:10:41;;;;;;;2.52;0.70;;;;;;;11.94;100.00;98860.56;1737612;80;21108;-49
2022/09/14 00:13:07;;;;;;;5.37;1.22;;;;;;;11.95;100.00;98856.91;1735040;80;21081;-46
2022/09/14 00:15:36;;;;;;;0.85;0.80;;;;;;;11.95;100.00;98854.21;1739079;80;21211;-50
2022/09/14 00:18:04;;;;;;;1.25;0.80;;;;;;;11.96;100.00;98857.29;1734166;80;21058;-47
2022/09/14 00:20:30;;;;;;;2.33;0.70;;;;;;;11.95;100.00;98855.56;1738108;80;21058;-48
2022/09/14 00:22:56;;;;;;;0.90;0.80;;;;;;;11.96;100.00;98854.59;1734413;80;21078;-48
2022/09/14 00:25:25;;;;;;;1.22;0.72;;;;;;;11.94;100.00;98853.83;1738823;80;21628;-49
2022/09/14 00:27:53;;;;;;;1.67;0.78;;;;;;;11.94;100.00;98849.78;1738798;80;21529;-48
2022/09/14 00:30:19;;;;;;;0.80;0.62;;;;;;;11.94;100.00;98855.17;1739537;80;21515;-48
2022/09/14 00:32:46;;;;;;;1.25;0.82;;;;;;;11.94;100.00;98851.13;1734992;80;21062;-48
2022/09/14 00:35:12;;;;;;;1.00;0.65;;;;;;;11.95;100.00;98858.25;1734489;80;21347;-46
2022/09/14 00:37:39;;;;;;;2.72;0.70;;;;;;;11.97;100.00;98854.11;1740041;80;21583;-47
2022/09/14 00:40:06;;;;;;;2.25;0.70;;;;;;;11.99;100.00;98857.06;1736077;80;21135;-48
2022/09/14 00:42:33;;;;;;;1.55;0.72;;;;;;;12.00;100.00;98856.58;1740682;80;21007;-50
2022/09/14 00:45:10;;;;;;;1.05;0.70;;;;;;;12.00;100.00;98857.45;1744720;80;21387;-48
2022/09/14 00:47:37;;;;;;;2.98;0.70;;;;;;;11.99;100.00;98857.06;1742212;80;21450;-47
2022/09/14 00:50:04;;;;;;;1.42;0.70;;;;;;;11.99;100.00;98853.53;1737898;80;21070;-47
2022/09/14 00:52:33;;;;;;;1.42;0.70;;;;;;;11.99;100.00;98851.67;1737444;80;21156;-49
2022/09/14 00:55:10;;;;;;;0.62;0.60;;;;;;;11.99;100.00;98850.83;1737633;80;20939;-49
2022/09/14 00:57:41;;;;;;;1.25;0.57;;;;;;;11.99;100.00;98849.48;1739939;80;20923;-48
2022/09/14 01:00:10;;;;;;;1.00;0.60;;;;;;;12.00;100.00;98852.05;1737711;80;21054;-48
2022/09/14 01:02:38;;;;;;;2.05;0.60;;;;;;;12.00;100.00;98848.00;1737143;80;21066;-47
2022/09/14 01:05:06;;;;;;;0.98;0.60;;;;;;;12.00;100.00;98848.00;1738677;80;20915;-48
2022/09/14 01:08:00;;;;;;;0.95;0.70;;;;;;;12.02;100.00;98846.56;1737853;80;20903;-49
2022/09/14 01:11:05;;;;;;;0.60;0.60;;;;;;;12.02;100.00;98840.68;1732371;79;20926;-49
2022/09/14 01:13:52;;;;;;;0.68;0.60;;;;;;;12.02;100.00;98837.12;1743102;79;21739;-46
2022/09/14 01:16:54;;;;;;;0.62;0.60;;;;;;;12.01;100.00;98845.69;1736549;79;21025;-47
2022/09/14 01:19:38;;;;;;;1.15;0.60;;;;;;;12.00;100.00;98835.87;1733481;79;21101;-46
2022/09/14 01:22:15;;;;;;;1.53;0.60;;;;;;;12.01;100.00;98833.55;1693005;79;21021;-47
2022/09/14 01:24:53;;;;;;;0.50;0.50;;;;;;;12.01;100.00;98837.60;1731062;79;21085;-47
2022/09/14 01:27:40;;;;;;;1.35;0.60;;;;;;;12.03;100.00;98835.67;1737046;79;21046;-46
2022/09/14 01:30:18;;;;;;;1.57;0.60;;;;;;;12.04;100.00;98833.36;1734481;79;21695;-48
2022/09/14 01:33:08;;;;;;;0.60;0.60;;;;;;;12.05;100.00;98840.48;1733356;80;21138;-49
2022/09/14 01:35:41;;;;;;;1.87;0.55;;;;;;;12.06;100.00;98831.91;1735954;79;21284;-46
2022/09/14 01:38:15;;;;;;;3.92;0.50;;;;;;;12.06;100.00;98835.47;1728692;79;21025;-46
2022/09/14 01:40:47;;;;;;;3.70;0.60;;;;;;;12.07;100.00;98826.89;1728563;79;21108;-46
2022/09/14 01:43:20;;;;;;;0.65;0.60;;;;;;;12.07;100.00;98826.89;1734420;79;21109;-47
2022/09/14 01:45:53;;;;;;;2.12;0.60;;;;;;;12.07;100.00;98829.59;1734625;79;21150;-46
2022/09/14 01:48:24;;;;;;;0.98;0.70;;;;;;;12.07;100.00;98824.20;1734299;79;21125;-49
2022/09/14 01:50:55;;;;;;;1.35;0.60;;;;;;;12.07;100.00;98826.41;1727801;79;22428;-47
2022/09/14 01:53:33;;;;;;;0.60;0.60;;;;;;;12.09;100.00;98823.58;1742433;80;21049;-47
2022/09/14 01:56:09;;;;;;;0.93;0.60;;;;;;;12.08;100.00;98821.37;1726324;79;21124;-46
2022/09/14 01:58:46;;;;;;;0.98;0.70;;;;;;;12.08;100.00;98817.32;1730701;79;21209;-45
2022/09/14 02:01:18;;;;;;;3.12;0.75;;;;;;;12.09;100.00;98814.14;1736051;80;21025;-45
2022/09/14 02:03:49;;;;;;;1.02;0.70;;;;;;;12.10;100.00;98814.52;1733117;80;21048;-49
2022/09/14 02:06:24;;;;;;;3.27;0.70;;;;;;;12.09;100.00;98806.05;1725720;79;21109;-47
2022/09/14 02:08:50;;;;;;;0.82;0.70;;;;;;;12.08;100.00;98813.76;1736852;79;21019;-46
2022/09/14 02:11:16;;;;;;;0.88;0.60;;;;;;;12.07;100.00;98804.84;1713032;81;21261;-46
2022/09/14 02:13:43;;;;;;;2.02;0.60;;;;;;;12.07;100.00;98804.84;1711259;81;21491;-46
2022/09/14 02:16:09;;;;;;;0.60;0.60;;;;;;;12.07;100.00;98806.19;1710771;81;21085;-47
2022/09/14 02:18:38;;;;;;;1.80;0.60;;;;;;;12.08;100.00;98809.23;1722273;81;21062;-47
2022/09/14 02:21:09;;;;;;;1.35;0.60;;;;;;;12.09;100.00;98803.35;1711435;81;20982;-47
2022/09/14 02:23:35;;;;;;;0.82;0.60;;;;;;;12.09;100.00;98808.27;1715581;81;21671;-45
2022/09/14 02:26:02;;;;;;;1.32;0.60;;;;;;;12.10;100.00;98807.78;1713305;81;21089;-47
2022/09/14 02:28:29;;;;;;;0.60;0.60;;;;;;;12.10;100.00;98810.48;1713647;81;21128;-45
2022/09/14 02:31:22;;;;;;;0.60;0.60;;;;;;;12.09;100.00;98802.00;1715919;81;21497;-46
2022/09/14 02:34:08;;;;;;;1.70;0.60;;;;;;;12.08;100.00;98798.44;1715560;81;21357;-46
2022/09/14 02:37:00;;;;;;;;;;;;;;;12.09;100.00;98804.70;1713877;81;21149;-47
2022/09/14 02:39:58;;;;;;;0.50;0.50;;;;;;;12.09;100.00;98804.70;1711201;81;20175;-47
2022/09/14 02:42:44;;;;;;;0.90;0.60;;;;;;;12.07;100.00;98809.36;1709659;81;21030;-45
2022/09/14 02:45:22;;;;;;;0.60;0.50;;;;;;;12.07;100.00;98794.53;1711401;81;21125;-47
2022/09/14 02:48:05;;;;;;;2.00;0.55;;;;;;;12.08;100.00;98793.53;1717383;81;21050;-47
2022/09/14 02:50:49;;;;;;;1.73;0.50;;;;;;;12.08;100.00;98793.05;1711282;81;21128;-45
2022/09/14 02:53:45;;;;;;;0.50;0.50;;;;;;;12.11;100.00;98794.67;1703791;81;21484;-49
2022/09/14 02:56:11;;;;;;;1.72;0.60;;;;;;;12.10;100.00;98792.95;1711472;81;21048;-46
2022/09/14 02:58:40;;;;;;;2.08;0.50;;;;;;;12.10;100.00;98788.90;1695705;81;21100;-47
2022/09/14 03:01:09;;;;;;;0.60;0.57;;;;;;;12.09;100.00;98788.52;1719467;81;21463;-48
2022/09/14 03:03:36;;;;;;;0.95;0.60;;;;;;;12.09;100.00;98787.17;1711646;81;21196;-46
2022/09/14 03:06:03;;;;;;;0.68;0.40;;;;;;;12.09;100.00;98796.13;1714568;81;21113;-47
2022/09/14 03:08:29;;;;;;;1.15;0.70;;;;;;;12.11;100.00;98794.19;1675610;83;21500;-49
2022/09/14 03:10:56;;;;;;;6.37;0.80;;;;;;;12.11;100.00;98798.23;1689110;82;21073;-46
2022/09/14 03:13:22;;;;;;;0.62;0.60;;;;;;;12.11;100.00;98800.07;1679921;82;21052;-46
2022/09/14 03:15:48;;;;;;;1.80;0.70;;;;;;;12.12;100.00;98791.02;1683791;82;21697;-46
2022/09/14 03:18:15;;;;;;;0.50;0.50;;;;;;;12.13;100.00;98786.00;1677201;82;21039;-46
2022/09/14 03:20:41;;;;;;;4.33;0.60;;;;;;;12.13;100.00;98803.05;1684982;82;21364;-46
2022/09/14 03:23:09;;;;;;;0.60;0.60;;;;;;;12.13;100.00;98794.09;1671484;84;21053;-45
2022/09/14 03:25:43;;;;;;;1.35;0.60;;;;;;;12.12;100.00;98793.23;1734901;80;21658;-46
2022/09/14 03:28:10;;;;;;;1.42;0.60;;;;;;;12.12;100.00;98792.36;1722706;80;22245;-45
2022/09/14 03:30:37;;;;;;;0.80;0.60;;;;;;;12.10;100.00;98783.50;1726184;80;21038;-47
2022/09/14 03:33:04;;;;;;;0.70;0.60;;;;;;;12.09;100.00;98782.64;1721907;80;21101;-45
2022/09/14 03:35:32;;;;;;;0.72;0.50;;;;;;;12.07;100.00;98780.56;1726873;80;21033;-45
2022/09/14 03:37:58;;;;;;;0.80;0.60;;;;;;;12.07;100.00;98783.73;1726762;80;21100;-45
2022/09/14 03:40:25;;;;;;;0.53;0.53;;;;;;;12.04;100.00;98782.11;1730740;80;21083;-49
2022/09/14 03:42:51;;;;;;;0.75;0.55;;;;;;;12.03;100.00;98789.81;1720265;80;21544;-46
2022/09/14 03:45:19;;;;;;;2.17;0.60;;;;;;;12.02;100.00;98796.18;1728345;80;21096;-45
2022/09/14 03:47:49;;;;;;;0.98;0.47;;;;;;;12.01;100.00;98789.05;1730510;80;21034;-46
2022/09/14 03:50:14;;;;;;;1.22;0.42;;;;;;;12.01;100.00;98796.28;1727777;80;21079;-45
2022/09/14 03:52:41;;;;;;;1.20;0.60;;;;;;;12.02;100.00;98790.78;1675731;84;21144;-48
2022/09/14 03:55:08;;;;;;;0.98;0.57;;;;;;;12.01;100.00;98793.58;1697551;82;21025;-44
2022/09/14 03:57:34;;;;;;;0.47;0.40;;;;;;;11.99;100.00;98797.73;1682383;82;21216;-46
2022/09/14 04:00:01;;;;;;;0.90;0.40;;;;;;;11.99;100.00;98804.98;1686284;82;20955;-46
2022/09/14 04:02:30;;;;;;;0.50;0.50;;;;;;;11.96;100.00;98802.48;1684101;82;21062;-46
2022/09/14 04:04:56;;;;;;;1.02;0.60;;;;;;;11.95;100.00;98797.58;1684728;82;21236;-46
2022/09/14 04:09:44;;;;;;;0.70;0.47;;;;;;;11.98;100.00;98786.59;1835140;75;27512;-47
2022/09/14 04:12:12;;;;;;;1.12;0.50;;;;;;;11.94;100.00;98803.94;1808941;77;20961;-46
2022/09/14 04:14:38;;;;;;;0.60;0.50;;;;;;;11.93;100.00;98808.95;1805529;77;21822;-49
2022/09/14 04:17:05;;;;;;;3.62;0.50;;;;;;;11.90;100.00;98810.52;1810522;77;21481;-46
2022/09/14 04:22:04;;;;;;;0.70;0.70;;;;;;;11.90;100.00;98808.31;1799486;78;25567;-47
2022/09/14 04:24:30;;;;;;;1.80;0.50;;;;;;;11.84;100.00;98812.27;1763720;78;20975;-45
2022/09/14 04:26:56;;;;;;;3.45;0.78;;;;;;;11.83;100.00;98819.11;1765835;79;21105;-46
2022/09/14 04:29:23;;;;;;;0.50;0.50;;;;;;;11.82;100.00;98816.92;1760884;79;21009;-47
2022/09/14 04:31:49;;;;;;;1.87;0.50;;;;;;;11.84;100.00;98819.02;1762422;78;21056;-46
2022/09/14 04:34:16;;;;;;;1.65;0.60;;;;;;;11.87;100.00;98815.25;1764863;79;21140;-45
2022/09/14 04:36:42;;;;;;;1.90;0.60;;;;;;;11.87;100.00;98818.81;1768565;79;21222;-47
2022/09/14 04:39:10;;;;;;;1.00;0.60;;;;;;;11.88;100.00;98812.45;1767829;79;21115;-47
2022/09/14 04:41:36;;;;;;;0.60;0.50;;;;;;;11.90;100.00;98812.36;1765291;78;21345;-46
2022/09/14 04:44:02;;;;;;;1.82;0.60;;;;;;;11.92;100.00;98818.48;1766112;79;21085;-47
2022/09/14 04:46:33;;;;;;;1.82;0.60;;;;;;;11.94;100.00;98811.16;1765509;79;21521;-47
2022/09/14 04:49:00;;;;;;;2.50;0.50;;;;;;;11.93;100.00;98810.30;1763606;79;21045;-47
2022/09/14 04:51:29;;;;;;;1.92;0.50;;;;;;;11.95;100.00;98820.98;1764135;79;22268;-46
2022/09/14 04:53:57;;;;;;;0.53;0.47;;;;;;;11.96;100.00;98810.58;1768367;79;21466;-46
2022/09/14 04:56:24;;;;;;;0.70;0.53;;;;;;;11.99;100.00;98812.56;1765228;79;21339;-47
2022/09/14 04:58:57;;;;;;;0.62;0.55;;;;;;;12.01;100.00;98813.33;1746533;79;21037;-47
2022/09/14 05:01:29;;;;;;;0.87;0.50;;;;;;;12.03;100.00;98815.44;1741836;80;21120;-49
2022/09/14 05:03:56;;;;;;;0.45;0.40;;;;;;;12.05;100.00;98818.91;1742880;80;21054;-45
2022/09/14 05:06:25;;;;;;;1.70;0.50;;;;;;;12.07;100.00;98816.97;1745217;80;21049;-50
2022/09/14 05:08:52;;;;;;;0.60;0.50;;;;;;;12.08;100.00;98820.02;1745150;81;21069;-48
2022/09/14 05:11:23;;;;;;;0.50;0.50;;;;;;;12.11;100.00;98819.82;1741831;81;21037;-46
2022/09/14 05:13:49;;;;;;;2.90;0.60;;;;;;;12.13;100.00;98819.72;1746234;80;21586;-46
2022/09/14 05:16:23;;;;;;;0.60;0.60;;;;;;;12.13;100.00;98824.63;1751004;80;21092;-46
2022/09/14 05:18:52;;;;;;;1.05;0.60;;;;;;;12.16;100.00;98834.84;1745202;81;20953;-45
2022/09/14 05:21:19;;;;;;;0.68;0.60;;;;;;;12.19;100.00;98826.52;1726567;80;21041;-46
2022/09/14 05:23:46;;;;;;;0.78;0.60;;;;;;;12.23;100.00;98826.70;1714027;81;21033;-46
2022/09/14 05:26:13;;;;;;;0.60;0.57;;;;;;;12.25;100.00;98827.46;1705247;81;21079;-46
2022/09/14 05:28:40;;;;;;;2.62;0.50;;;;;;;12.28;100.00;98833.97;1716057;81;21046;-46
2022/09/14 05:31:09;;;;;;;0.60;0.60;;;;;;;12.31;100.00;98824.33;1713339;81;21372;-46
2022/09/14 05:33:36;;;;;;;2.42;0.55;;;;;;;12.34;100.00;98837.58;1709996;81;21492;-45
2022/09/14 05:36:06;;;;;;;1.20;0.70;;;;;;;12.37;100.00;98834.68;1715871;81;21097;-46
2022/09/14 05:38:35;;;;;;;1.02;0.50;;;;;;;12.39;100.00;98829.56;1710291;81;21088;-47
2022/09/14 05:41:01;;;;;;;0.70;0.60;;;;;;;12.41;100.00;98828.11;1679975;83;21143;-47
2022/09/14 05:43:28;;;;;;;1.37;0.60;;;;;;;12.45;100.00;98823.72;1675490;83;21515;-47
2022/09/14 05:45:54;;;;;;;0.68;0.60;;;;;;;12.48;100.00;98820.82;1713763;81;21061;-46
2022/09/14 05:48:21;;;;;;;0.70;0.60;;;;;;;12.51;100.00;98822.42;1707444;81;21058;-47
2022/09/14 05:50:47;;;;;;;0.68;0.60;;;;;;;12.54;100.00;98824.91;1674685;83;21737;-46
2022/09/14 05:53:13;;;;;;;2.00;0.60;;;;;;;12.58;100.00;98819.69;1674784;83;21154;-47
2022/09/14 05:55:40;;;;;;;0.60;0.60;;;;;;;12.63;100.00;98818.00;1714681;81;21500;-46
2022/09/14 05:58:06;;;;;;;1.52;0.60;;;;;;;12.67;100.00;98815.47;1708808;82;21066;-47
2022/09/14 06:00:34;;;;;;;0.70;0.68;;;;;;;12.69;100.00;98814.36;1713979;81;21079;-47
2022/09/14 06:03:00;;;;;;;1.67;0.60;;;;;;;12.73;100.00;98816.38;1709426;81;21061;-48
2022/09/14 06:05:27;;;;;;;0.95;0.50;;;;;;;12.74;100.00;98814.92;1712819;81;21480;-47
2022/09/14 06:07:54;;;;;;;1.00;0.50;;;;;;;12.78;100.00;98811.00;1679914;83;21426;-48
2022/09/14 06:10:21;;;;;;;1.62;0.85;;;;;;;12.83;100.00;98818.31;1720769;81;21065;-47
2022/09/14 06:12:49;;;;;;;0.82;0.47;;;;;;;12.84;100.00;98802.45;1713877;81;21108;-49
2022/09/14 06:15:16;;;;;;;1.67;0.50;;;;;;;12.87;100.00;98802.23;1715565;81;22215;-45
2022/09/14 06:17:44;;;;;;;0.60;0.40;;;;;;;12.92;100.00;98806.46;1674464;83;21067;-49
2022/09/14 06:20:11;;;;;;;0.80;0.40;;;;;;;12.96;100.00;98805.25;1720765;81;21050;-47
2022/09/14 06:22:37;;;;;;;0.65;0.60;;;;;;;13.01;100.00;98805.31;1700734;82;21113;-47
2022/09/14 06:25:05;;;;;;;0.72;0.40;;;;;;;13.03;100.00;98811.92;1692479;82;22452;-46
2022/09/14 06:27:32;;;;;;;0.50;0.50;;;;;;;13.04;100.00;98804.20;1674341;83;20963;-47
2022/09/14 06:29:58;;;;;;;1.75;0.40;;;;;;;13.07;100.00;98803.98;1734678;80;21099;-47
2022/09/14 06:32:26;;;;;;;0.40;0.40;;;;;;;13.10;100.00;98811.36;1735611;80;20944;-46
2022/09/14 06:34:52;;;;;;;0.50;0.50;;;;;;;13.13;100.00;98811.63;1731918;80;21121;-49
2022/09/14 06:37:18;;;;;;;0.40;0.40;;;;;;;13.17;100.00;98810.48;1737476;80;22471;-48
2022/09/14 06:39:45;;;;;;;1.07;0.40;;;;;;;13.19;100.00;98803.09;1727952;80;21468;-49
2022/09/14 06:42:12;;;;;;;0.98;0.40;;;;;;;13.24;100.00;98809.05;1693377;82;21584;-48
2022/09/14 06:44:39;;;;;;;2.67;0.45;;;;;;;13.29;100.00;98803.28;1731360;80;21061;-48
2022/09/14 06:47:06;;;;;;;0.80;0.50;;;;;;;13.35;100.00;98799.66;1724349;80;21097;-49
2022/09/14 06:49:32;;;;;;;0.40;0.40;;;;;;;13.41;100.00;98800.55;1731027;81;21728;-46
2022/09/14 06:51:59;;;;;;;0.42;0.40;;;;;;;13.46;100.00;98792.94;1732045;81;21077;-50
2022/09/14 06:54:26;;;;;;;0.75;0.40;;;;;;;13.48;100.00;98780.18;1720490;80;21092;-47
2022/09/14 06:56:53;;;;;;;3.77;0.40;;;;;;;13.52;100.00;98787.09;1730132;80;21512;-48
2022/09/14 06:59:20;;;;;;;0.53;0.40;;;;;;;13.56;100.00;98789.92;1731848;80;21040;-50
2022/09/14 07:01:49;;;;;;;0.30;0.30;;;;;;;13.59;100.00;98785.65;1732567;81;21082;-51
2022/09/14 07:04:16;;;;;;;2.00;0.40;;;;;;;13.64;100.00;98792.91;1734831;80;21160;-48
2022/09/14 07:06:48;;;;;;;0.50;0.40;;;;;;;13.69;100.00;98791.71;1734282;80;21051;-48
2022/09/14 07:09:16;;;;;;;3.17;0.40;;;;;;;13.73;100.00;98791.34;1727320;80;21053;-47
2022/09/14 07:11:43;;;;;;;0.72;0.45;;;;;;;13.79;100.00;98791.36;1728856;80;21092;-50
2022/09/14 07:14:10;;;;;;;0.68;0.37;;;;;;;13.85;100.00;98787.72;1728973;81;21065;-49
2022/09/14 07:16:38;;;;;;;0.65;0.35;;;;;;;13.92;100.00;98783.56;1732032;80;21053;-48
2022/09/14 07:19:08;;;;;;;1.57;0.30;;;;;;;14.01;100.00;98788.26;1730117;80;21253;-50
2022/09/14 07:21:35;;;;;;;0.72;0.35;;;;;;;14.10;100.00;98786.69;1722476;80;21192;-47
2022/09/14 07:24:03;;;;;;;0.50;0.30;;;;;;;14.15;100.00;98783.11;1711012;81;21508;-50
2022/09/14 07:26:32;;;;;;;0.33;0.30;;;;;;;14.24;100.00;98781.05;1702016;81;21093;-47
2022/09/14 07:29:02;;;;;;;1.25;0.40;;;;;;;14.32;100.00;98771.83;1707736;81;21089;-47
2022/09/14 07:31:37;;;;;;;3.05;0.30;;;;;;;14.42;100.00;98761.66;1705420;81;21512;-48
2022/09/14 07:34:04;;;;;;;0.50;0.30;;;;;;;14.51;100.00;98762.28;1705555;81;21077;-48
2022/09/14 07:36:33;;;;;;;1.15;0.30;;;;;;;14.59;100.00;98769.30;1705567;81;22390;-48
2022/09/14 07:39:00;;;;;;;0.30;0.30;;;;;;;14.63;100.00;98763.50;1701573;81;21088;-47
2022/09/14 07:41:28;;;;;;;0.23;0.20;;;;;;;14.66;100.00;98770.03;1706100;81;21053;-48
2022/09/14 07:43:59;;;;;;;0.30;0.30;;;;;;;14.69;100.00;98768.45;1713176;81;22337;-47
2022/09/14 07:46:28;;;;;;;0.60;0.20;;;;;;;14.74;100.00;98768.92;1702073;82;21080;-49
2022/09/14 07:48:57;;;;;;;0.40;0.30;;;;;;;14.85;100.00;98766.70;1710497;81;21078;-47
2022/09/14 07:51:25;;;;;;;0.23;0.23;;;;;;;14.94;100.00;98761.90;1710210;81;21124;-50
2022/09/14 07:53:51;;;;;;;1.82;0.30;;;;;;;15.05;100.00;98756.96;1711400;81;21094;-49
2022/09/14 07:56:18;;;;;;;0.50;0.20;;;;;;;15.19;100.00;98758.52;1707646;81;21066;-48
2022/09/14 07:58:44;;;;;;;0.40;0.30;;;;;;;15.31;100.00;98756.16;1703420;81;21080;-48
2022/09/14 08:01:13;;;;;;;0.40;0.20;;;;;;;15.41;100.00;98750.31;1672966;83;21104;-48
2022/09/14 08:03:42;;;;;;;1.65;0.23;;;;;;;15.51;100.00;98753.48;1710221;81;21179;-47
2022/09/14 08:06:18;;;;;;;0.30;0.15;;;;;;;15.58;100.00;98751.14;1710503;81;21492;-50
2022/09/14 08:08:47;;;;;;;0.20;0.20;;;;;;;15.64;100.00;98747.94;1707107;82;21264;-50
2022/09/14 08:11:16;;;;;;;1.85;0.20;;;;;;;15.68;100.00;98748.03;1672256;83;21100;-50
2022/09/14 08:13:50;;;;;;;1.47;0.20;;;;;;;15.70;100.00;98763.69;1707460;81;21041;-47
2022/09/14 08:16:22;;;;;;;0.30;0.20;;;;;;;15.73;100.00;98756.66;1705131;81;21372;-48
2022/09/14 08:18:45;;;;;;;0.33;0.30;;;;;;;15.77;100.00;98757.23;1707303;81;21320;-50
2022/09/14 08:21:14;;;;;;;1.17;0.20;;;;;;;15.79;100.00;98756.62;1711788;81;21220;-49
2022/09/14 08:23:41;;;;;;;0.65;0.20;;;;;;;15.78;100.00;98751.69;1739521;80;21073;-48
2022/09/14 08:26:14;;;;;;;0.33;0.20;;;;;;;15.76;100.00;98740.59;1736013;80;21101;-47
2022/09/14 08:28:41;;;;;;;0.20;0.20;;;;;;;15.75;100.00;98737.50;1736162;80;21081;-48
2022/09/14 08:31:13;;;;;;;0.20;0.20;;;;;;;15.78;100.00;98739.97;1735923;80;21080;-50
2022/09/14 08:33:45;;;;;;;0.30;0.23;;;;;;;15.87;100.00;98738.69;1735258;80;21197;-48
2022/09/14 08:36:13;;;;;;;0.15;0.10;;;;;;;15.98;100.00;98737.77;1733441;80;22079;-49
2022/09/14 08:38:40;;;;;;;0.20;0.17;;;;;;;16.11;100.00;98739.77;1734454;80;21133;-49
2022/09/14 08:41:54;;;;;;;0.20;0.20;;;;;;;16.18;100.00;98734.17;1732699;80;21137;-48
2022/09/14 08:44:31;;;;;;;0.20;0.15;;;;;;;16.22;100.00;98730.70;1731934;80;21062;-49
2022/09/14 08:47:19;;;;;;;0.20;0.20;;;;;;;16.26;100.00;98734.86;1733447;80;21278;-48
2022/09/14 08:50:06;;;;;;;0.20;0.20;;;;;;;16.25;100.00;98731.77;1737154;80;21088;-50
2022/09/14 08:52:52;;;;;;;0.98;0.20;;;;;;;16.24;100.00;98736.87;1734288;80;21061;-48
2022/09/14 08:55:51;;;;;;;0.20;0.20;;;;;;;16.22;100.00;98735.64;1734472;81;21536;-50
2022/09/14 08:58:48;;;;;;;0.90;0.20;;;;;;;16.20;100.00;98724.05;1737998;80;21030;-47
2022/09/14 09:02:02;;;;;;;0.20;0.20;;;;;;;16.16;100.00;98717.14;1738361;80;21444;-48
2022/09/14 09:04:52;;;;;;;0.30;0.20;;;;;;;16.11;100.00;98723.98;1733392;81;21041;-47
2022/09/14 09:07:33;;;;;;;0.28;0.20;;;;;;;16.03;100.00;98719.22;1711707;80;21127;-48
2022/09/14 09:10:00;;;;;;;0.30;0.20;;;;;;;15.96;100.00;98727.54;1739411;80;21042;-49
2022/09/14 09:12:38;;;;;;;1.70;0.30;;;;;;;15.88;100.00;98728.70;1735997;80;21550;-46
2022/09/14 09:15:24;;;;;;;1.20;0.20;;;;;;;15.81;100.00;98728.37;1742090;80;21574;-47
2022/09/14 09:17:57;;;;;;;;;;;;;;;15.76;100.00;98734.66;1739284;80;21117;-47
2022/09/14 09:20:29;;;;;;;0.80;0.30;;;;;;;15.72;100.00;98744.57;1736175;80;20271;-49
2022/09/14 09:23:19;;;;;;;0.68;0.30;;;;;;;15.65;100.00;98739.30;1738376;81;20993;-48
2022/09/14 09:25:59;;;;;;;0.70;0.20;;;;;;;15.57;100.00;98734.50;1728954;80;20950;-49
2022/09/14 09:28:27;;;;;;;0.28;0.28;;;;;;;15.50;100.00;98731.91;1731531;80;21063;-47
2022/09/14 09:30:56;;;;;;;0.40;0.20;;;;;;;15.44;100.00;98729.73;1660622;84;20975;-47
2022/09/14 09:33:25;;;;;;;0.25;0.25;;;;;;;15.40;100.00;98737.73;1732963;80;20947;-48
2022/09/14 09:35:54;;;;;;;0.30;0.30;;;;;;;15.37;100.00;98735.31;1728811;80;20986;-46
2022/09/14 09:38:24;;;;;;;1.75;0.40;;;;;;;15.36;100.00;98735.80;1735175;80;21488;-48
2022/09/14 09:40:58;;;;;;;2.77;0.30;;;;;;;15.36;100.00;98730.38;1727589;80;22398;-47
2022/09/14 09:43:24;;;;;;;2.93;0.50;;;;;;;15.35;100.00;98736.78;1731862;80;20985;-47
2022/09/14 09:45:58;;;;;;;0.40;0.40;;;;;;;15.34;100.00;98730.13;1729326;80;21700;-48
2022/09/14 09:48:42;;;;;;;;;;;;;;;15.33;100.00;98727.05;1730873;80;21030;-49
2022/09/14 09:51:17;;;;;;;0.60;0.47;;;;;;;15.31;100.00;98716.85;1725077;80;20240;-46
2022/09/14 09:53:48;;;;;;;;;;;;;;;15.28;100.00;98722.03;1737601;80;20879;-46
2022/09/14 09:56:23;;;;;;;0.60;0.50;;;;;;;15.27;100.00;98717.59;1734333;80;20154;-46
2022/09/14 09:58:50;;;;;;;0.50;0.40;;;;;;;15.25;100.00;98713.27;1728901;80;21093;-46
2022/09/14 10:01:27;;;;;;;1.00;0.40;;;;;;;15.25;100.00;98714.14;1731175;80;21085;-47
2022/09/14 10:04:17;;;;;;;0.60;0.40;;;;;;;15.27;100.00;98714.88;1730840;80;21536;-49
2022/09/14 10:06:48;;;;;;;0.60;0.30;;;;;;;15.28;100.00;98715.74;1694742;82;21312;-48
2022/09/14 10:09:20;;;;;;;0.70;0.50;;;;;;;15.31;100.00;98718.20;1733509;81;21050;-46
2022/09/14 10:11:56;;;;;;;1.50;0.42;;;;;;;15.33;100.00;98717.56;1730246;80;21093;-46
2022/09/14 10:14:32;;;;;;;1.57;0.40;;;;;;;15.38;100.00;98711.27;1736801;81;21042;-46
2022/09/14 10:17:20;;;;;;;0.57;0.45;;;;;;;15.44;100.00;98715.67;1735739;80;21343;-48
2022/09/14 10:19:48;;;;;;;0.40;0.40;;;;;;;15.50;100.00;98713.80;1728295;80;21140;-45
2022/09/14 10:22:27;;;;;;;0.60;0.50;;;;;;;15.55;100.00;98712.09;1731021;81;21058;-49
2022/09/14 10:25:03;;;;;;;1.60;0.50;;;;;;;15.59;100.00;98708.61;1731782;80;21038;-46
2022/09/14 10:27:47;;;;;;;3.15;0.60;;;;;;;15.63;100.00;98712.80;1721002;81;21065;-47
2022/09/14 10:30:18;;;;;;;2.05;0.60;;;;;;;15.64;100.00;98708.61;1729208;81;21548;-47
2022/09/14 10:32:53;;;;;;;1.77;0.60;;;;;;;15.66;100.00;98703.88;1725692;80;21123;-46
2022/09/14 10:35:20;;;;;;;1.70;0.50;;;;;;;15.68;100.00;98703.76;1732228;80;21171;-46
2022/09/14 10:38:19;;;;;;;2.95;0.60;;;;;;;15.70;100.00;98710.78;1732185;80;21095;-46
2022/09/14 10:40:49;;;;;;;3.33;0.60;;;;;;;15.73;100.00;98709.67;1728646;80;21054;-46
2022/09/14 10:43:37;;;;;;;3.62;0.80;;;;;;;15.76;100.00;98708.03;1728570;80;21085;-47
2022/09/14 10:46:04;;;;;;;0.60;0.55;;;;;;;15.80;100.00;98713.58;1729719;80;21154;-48
2022/09/14 10:48:57;;;;;;;0.57;0.50;;;;;;;15.83;100.00;98712.80;1707970;81;21089;-47
2022/09/14 10:51:35;;;;;;;1.65;0.60;;;;;;;15.87;100.00;98710.69;1730119;80;21026;-45
2022/09/14 10:54:25;;;;;;;0.50;0.50;;;;;;;15.89;100.00;98698.72;1729031;81;22226;-46
2022/09/14 10:57:06;;;;;;;6.25;0.72;;;;;;;15.94;100.00;98705.09;1728214;80;21627;-47
2022/09/14 10:59:53;;;;;;;0.68;0.68;;;;;;;15.96;100.00;98696.33;1726449;80;21476;-49
2022/09/14 11:02:43;;;;;;;0.60;0.60;;;;;;;15.98;100.00;98701.62;1728756;80;21180;-48
2022/09/14 11:05:27;;;;;;;0.68;0.60;;;;;;;15.99;100.00;98696.56;1724222;80;22536;-47
2022/09/14 11:08:08;;;;;;;0.68;0.55;;;;;;;16.02;100.00;98699.86;1724168;80;21140;-47
2022/09/14 11:10:58;;;;;;;2.85;0.70;;;;;;;16.05;100.00;98695.53;1725361;80;21096;-49
2022/09/14 11:13:51;;;;;;;2.30;0.98;;;;;;;16.09;100.00;98700.17;1729354;80;22358;-48
2022/09/14 11:16:38;;;;;;;2.05;0.62;;;;;;;16.14;100.00;98687.08;1727459;80;21046;-46
2022/09/14 11:19:16;;;;;;;0.93;0.62;;;;;;;16.17;100.00;98690.86;1651769;85;21148;-47
2022/09/14 11:22:09;;;;;;;3.98;0.80;;;;;;;16.19;100.00;98684.80;1708397;80;21246;-46
2022/09/14 11:24:52;;;;;;;2.70;0.90;;;;;;;16.19;100.00;98690.23;1693895;82;21053;-47
2022/09/14 11:27:29;;;;;;;1.22;0.78;;;;;;;16.19;100.00;98686.16;1695189;82;21298;-46
2022/09/14 11:30:07;;;;;;;0.80;0.70;;;;;;;16.18;100.00;98684.44;1727397;80;21115;-46
2022/09/14 11:32:41;;;;;;;2.00;0.90;;;;;;;16.15;100.00;98684.23;1723332;81;21419;-47
2022/09/14 11:35:25;;;;;;;2.35;0.65;;;;;;;16.13;100.00;98686.71;1729908;80;21073;-48
2022/09/14 11:38:04;;;;;;;0.82;0.80;;;;;;;16.10;100.00;98686.47;1727716;80;21105;-46
2022/09/14 11:40:45;;;;;;;1.67;0.88;;;;;;;16.06;100.00;98695.03;1729078;80;22053;-46
2022/09/14 11:43:21;;;;;;;6.55;1.10;;;;;;;16.03;100.00;98689.86;1727557;80;21077;-47
2022/09/14 11:45:54;;;;;;;3.12;1.35;;;;;;;16.01;100.00;98692.70;1729161;80;21462;-48
2022/09/14 11:49:00;;;;;;;3.92;1.10;;;;;;;15.98;100.00;98691.63;1731287;80;21057;-47
2022/09/14 11:51:45;;;;;;;2.75;1.10;;;;;;;15.95;100.00;98691.89;1733922;80;21065;-46
2022/09/14 11:54:19;;;;;;;2.65;1.22;;;;;;;15.95;100.00;98687.82;1731009;81;22268;-47
2022/09/14 11:56:54;;;;;;;1.02;0.93;;;;;;;15.97;100.00;98681.77;1731998;80;20970;-46